Nautical Loredana — D5HY8 — position and weather

sailwx.info

Track history (hours):
 
Tides and Currents Weather Stations Pressure Air Temp Water Temp Dewpoint Dewpoint Depression Visibility Wind Speed Wind Dir Waves Ship Positions

Nautical Loredana

Last reported at 2018-Feb-17 20:21 UTC. Time now 2018-Feb-20 19:37 UTC.
Position S 30°15' E 031°21'.

Length 199 m; draft 11.7 m.

Type: Cargo ship. MMSI: 636016820.

Date/timePositionNaut miles runAvg speedWind from/ knotsBaromVisibWave heightAir tempDewpointWater temp
2018-Feb-17 20:21S 30°15' E 031°21'616.7
2018-Feb-17 19:59S 30°10' E 031°25'816.9
2018-Feb-17 19:30S 30°03' E 031°29'917.0
2018-Feb-17 19:00S 29°56' E 031°34'917.0
2018-Feb-17 18:30S 29°48' E 031°39'816.9
2018-Feb-17 18:01S 29°41' E 031°44'917.0
2018-Feb-17 17:30S 29°34' E 031°49'816.9
2018-Feb-17 17:00S 29°26' E 031°54'917.0
2018-Feb-17 16:29S 29°19' E 031°59'917.1
2018-Feb-17 15:57S 29°10' E 032°04'1017.1
2018-Feb-17 15:23S 29°03' E 032°10'  
2018-Feb-14 06:01S 28°48' E 032°03'0 1.9
2018-Feb-14 06:00S 28°48' E 032°03'3 4.9
2018-Feb-14 05:27S 28°49' E 032°05'3 6.5
2018-Feb-14 04:55S 28°51' E 032°08'1 2.0
2018-Feb-14 04:29S 28°52' E 032°09'2 3.2
2018-Feb-14 03:58S 28°53' E 032°09'2 3.9
2018-Feb-14 03:29S 28°55' E 032°09'3 5.2
2018-Feb-14 03:00S 28°58' E 032°08'1 2.2
2018-Feb-14 02:27S 28°59' E 032°08'0 0.0
2018-Feb-14 01:54S 28°59' E 032°08'0 0.0
2018-Feb-14 01:30S 28°59' E 032°08'0 0.0
2018-Feb-14 00:57S 28°59' E 032°08'0 0.0
2018-Feb-14 00:15S 28°59' E 032°08'0 0.0
2018-Feb-13 15:51S 28°59' E 032°08'0 0.0
2018-Feb-13 12:03S 28°59' E 032°08'0 0.0
2018-Feb-13 11:42S 28°59' E 032°08'0 0.0
2018-Feb-13 11:21S 28°59' E 032°08'0 0.0
2018-Feb-13 10:48S 28°59' E 032°08'0 0.0
2018-Feb-13 10:30S 28°59' E 032°08'0 0.0
2018-Feb-12 19:36S 28°59' E 032°08'0 0.1
2018-Feb-12 19:18S 28°59' E 032°08'0 0.0
2018-Feb-12 18:54S 28°59' E 032°08'0 0.0
2018-Feb-12 18:27S 28°59' E 032°08'0 0.0
2018-Feb-12 16:09S 28°59' E 032°08'0 0.0
2018-Feb-12 15:57S 28°59' E 032°08'0 0.0
2018-Feb-12 15:06S 28°59' E 032°08'0 0.1
2018-Feb-12 15:00S 28°59' E 032°08'0 0.0
2018-Feb-12 14:30S 28°59' E 032°08'0 0.0
2018-Feb-12 13:57S 28°59' E 032°08'0 0.0
2018-Feb-12 12:00S 28°59' E 032°08'0 0.0
2018-Feb-12 09:51S 28°59' E 032°08'0 0.0
2018-Feb-12 09:15S 28°59' E 032°08'0 0.0
2018-Feb-12 07:45S 28°59' E 032°08'0 0.0
2018-Feb-12 07:27S 28°59' E 032°08'0 0.0
2018-Feb-12 06:57S 28°59' E 032°08'0 0.0
2018-Feb-12 06:15S 28°59' E 032°08'0 0.1
2018-Feb-12 05:57S 28°59' E 032°08'  
Track history (hours):
 
Tides and Currents Weather Stations Pressure Air Temp Water Temp Dewpoint Dewpoint Depression Visibility Wind Speed Wind Dir Waves Ship Positions

Nautical Loredana

Last reported at 2018-Feb-17 20:21 UTC. Time now 2018-Feb-20 19:37 UTC.
Position S 30°15' E 031°21'.

Length 199 m; draft 11.7 m.

Type: Cargo ship. MMSI: 636016820.

Date/timePositionNaut miles runAvg speedWind from/ knotsBaromVisibWave heightAir tempDewpointWater temp
2018-Feb-17 20:21S 30°15' E 031°21'616.7
2018-Feb-17 19:59S 30°10' E 031°25'816.9
2018-Feb-17 19:30S 30°03' E 031°29'917.0
2018-Feb-17 19:00S 29°56' E 031°34'917.0
2018-Feb-17 18:30S 29°48' E 031°39'816.9
2018-Feb-17 18:01S 29°41' E 031°44'917.0
2018-Feb-17 17:30S 29°34' E 031°49'816.9
2018-Feb-17 17:00S 29°26' E 031°54'917.0
2018-Feb-17 16:29S 29°19' E 031°59'917.1
2018-Feb-17 15:57S 29°10' E 032°04'1017.1
2018-Feb-17 15:23S 29°03' E 032°10'  
2018-Feb-14 06:01S 28°48' E 032°03'0 1.9
2018-Feb-14 06:00S 28°48' E 032°03'3 4.9
2018-Feb-14 05:27S 28°49' E 032°05'3 6.5
2018-Feb-14 04:55S 28°51' E 032°08'1 2.0
2018-Feb-14 04:29S 28°52' E 032°09'2 3.2
2018-Feb-14 03:58S 28°53' E 032°09'2 3.9
2018-Feb-14 03:29S 28°55' E 032°09'3 5.2
2018-Feb-14 03:00S 28°58' E 032°08'1 2.2
2018-Feb-14 02:27S 28°59' E 032°08'0 0.0
2018-Feb-14 01:54S 28°59' E 032°08'0 0.0
2018-Feb-14 01:30S 28°59' E 032°08'0 0.0
2018-Feb-14 00:57S 28°59' E 032°08'0 0.0
2018-Feb-14 00:15S 28°59' E 032°08'0 0.0
2018-Feb-13 15:51S 28°59' E 032°08'0 0.0
2018-Feb-13 12:03S 28°59' E 032°08'0 0.0
2018-Feb-13 11:42S 28°59' E 032°08'0 0.0
2018-Feb-13 11:21S 28°59' E 032°08'0 0.0
2018-Feb-13 10:48S 28°59' E 032°08'0 0.0
2018-Feb-13 10:30S 28°59' E 032°08'0 0.0
2018-Feb-12 19:36S 28°59' E 032°08'0 0.1
2018-Feb-12 19:18S 28°59' E 032°08'0 0.0
2018-Feb-12 18:54S 28°59' E 032°08'0 0.0
2018-Feb-12 18:27S 28°59' E 032°08'0 0.0
2018-Feb-12 16:09S 28°59' E 032°08'0 0.0
2018-Feb-12 15:57S 28°59' E 032°08'0 0.0
2018-Feb-12 15:06S 28°59' E 032°08'0 0.1
2018-Feb-12 15:00S 28°59' E 032°08'0 0.0
2018-Feb-12 14:30S 28°59' E 032°08'0 0.0
2018-Feb-12 13:57S 28°59' E 032°08'0 0.0
2018-Feb-12 12:00S 28°59' E 032°08'0 0.0
2018-Feb-12 09:51S 28°59' E 032°08'0 0.0
2018-Feb-12 09:15S 28°59' E 032°08'0 0.0
2018-Feb-12 07:45S 28°59' E 032°08'0 0.0
2018-Feb-12 07:27S 28°59' E 032°08'0 0.0
2018-Feb-12 06:57S 28°59' E 032°08'0 0.0
2018-Feb-12 06:15S 28°59' E 032°08'0 0.1
2018-Feb-12 05:57S 28°59' E 032°08'  

Dump ship's entire track history